RJS weather

Rancho San Jose de Pedrero Airport
Teapa, Tabasco, Mexico

Public forecast

Using degrees Celsius for public forecast. Weather courtesy of forecast.io.

METAR (pilot weather report)

Closest report is Carlos Rovirosa Pérez International Airport, 18.4 nm (34.0 km) NNE. Retrieved 2019/06/20 20:44 UTC (5 minutes ago):

MMVA 202044Z 00000KT 7SM SCT015 34/24 A2980 RMK SLP089 57020 956 8/100

TAF (pilot weather forecast)

Closest forecast is Carlos Rovirosa Pérez International Airport, 18.4 nm (34.0 km) NNE. Retrieved 2019/06/20 18:00 UTC (3 hours ago):

TAF MMVA 201657Z 2018/2118 09010KT P6SM SCT030 BKN100 FM210600 10010KT 6SM HZ SCT020